EDT,Max TemperatureF,Mean TemperatureF,Min TemperatureF,Max Dew PointF,MeanDew PointF,Min DewpointF,Max Humidity, Mean Humidity, Min Humidity, Max Sea Level PressureIn, Mean Sea Level PressureIn, Min Sea Level PressureIn, Max VisibilityMiles, Mean VisibilityMiles, Min VisibilityMiles, Max Wind SpeedMPH, Mean Wind SpeedMPH, Max Gust SpeedMPH,PrecipitationIn, CloudCover, Events, WindDirDegrees
2014-3-1,31,12,-7,12,1,-11,82,58,33,30.45,30.26,30.09,10,10,10,18,7,25,0.00,3,,205
2014-3-2,30,17,3,22,14,1,87,67,47,30.15,30.10,30.05,10,8,1,14,6,17,T,7,Snow,45
2014-3-3,23,8,-7,0,-7,-12,86,57,28,30.38,30.25,30.13,10,10,10,16,5,23,0.00,0,,353
2014-3-4,20,3,-15,14,3,-18,84,65,45,30.44,30.34,30.27,10,7,2,13,4,16,T,6,Snow,169
2014-3-5,24,13,1,14,8,-7,88,69,49,30.63,30.40,30.29,10,8,3,16,7,21,T,6,Snow,31
2014-3-6,25,6,-13,-3,-7,-15,79,51,22,30.74,30.63,30.51,10,10,10,10,2,13,0.00,0,,49
2014-3-7,36,12,-12,19,5,-15,88,68,47,30.50,30.26,29.98,10,10,9,17,3,21,0.00,1,,178
2014-3-8,39,23,7,26,18,5,91,72,52,29.97,29.90,29.84,10,10,7,15,4,18,0.00,5,,17
2014-3-9,38,23,8,13,7,-1,80,50,20,30.04,29.96,29.88,10,10,10,15,5,20,0.00,1,,249
2014-3-10,38,32,25,29,21,13,82,67,52,29.89,29.74,29.53,10,9,5,13,4,16,T,8,Snow,181
2014-3-11,54,41,28,32,27,21,85,57,28,29.71,29.59,29.49,10,9,6,22,8,30,0.00,3,,240
2014-3-12,37,28,18,32,24,13,96,83,70,29.71,29.44,29.26,10,2,0,25,10,31,1.02,8,Fog-Rain-Snow,16
2014-3-13,19,10,-2,13,4,-7,85,66,37,30.05,29.61,29.32,10,6,1,23,13,32,0.01,6,Snow,334
2014-3-14,37,14,-9,20,8,-12,91,69,47,30.15,30.01,29.78,10,10,10,16,6,23,0.00,4,,207
2014-3-15,46,37,28,31,25,14,76,62,47,29.99,29.77,29.68,10,10,10,21,9,32,T,7,,237
2014-3-16,28,20,11,15,1,-6,68,49,29,30.29,30.18,30.00,10,10,9,17,10,23,T,1,,312
2014-3-17,24,13,2,0,-3,-5,79,55,31,30.27,30.21,30.14,10,10,10,10,4,13,0.00,0,,37
2014-3-18,36,17,-3,12,1,-7,79,52,25,30.35,30.31,30.24,10,10,10,12,2,13,0.00,1,,27
2014-3-19,37,23,8,32,23,6,100,76,52,30.33,30.08,29.89,10,6,1,15,1,21,0.41,6,Rain-Snow,58
2014-3-20,43,38,32,34,30,24,100,77,53,29.88,29.74,29.67,10,5,1,21,7,30,0.09,8,Rain-Snow,223
2014-3-21,39,30,21,24,20,17,81,63,44,30.06,29.93,29.79,10,10,10,22,9,36,0.00,5,,260
2014-3-22,44,31,18,31,23,14,84,67,49,30.07,29.85,29.68,10,9,2,24,7,38,T,6,Snow,244
2014-3-23,34,25,16,23,10,-2,64,48,31,30.22,30.07,29.97,10,10,10,23,12,28,0.00,2,,333
2014-3-24,31,19,6,3,-1,-4,69,48,27,30.25,30.18,30.08,10,10,10,18,6,23,0.00,0,,316
2014-3-25,34,18,2,14,8,0,88,60,32,30.16,30.05,29.96,10,10,10,18,5,23,0.00,2,,192
2014-3-26,30,22,13,14,6,-4,77,53,29,30.19,29.97,29.88,10,10,10,29,15,38,0.00,1,,332
2014-3-27,38,20,2,22,7,-5,69,55,40,30.38,30.28,30.16,10,10,10,18,6,21,0.00,2,,167
2014-3-28,44,38,31,41,34,14,93,65,37,30.16,30.00,29.90,10,4,1,18,6,24,0.25,8,Rain-Snow,209
2014-3-29,46,41,35,40,35,31,100,77,53,30.28,30.16,29.95,10,8,4,16,7,18,0.41,8,Rain,32
2014-3-30,40,37,33,36,33,29,100,88,76,29.91,29.79,29.73,10,6,2,23,13,29,0.53,8,Rain,9
2014-3-31,41,37,32,27,26,24,78,66,54,30.16,30.04,29.87,10,10,10,30,14,37,0.00,6,,16